sensor_id;sensor_type;location;lat;lon;timestamp;P1;durP1;ratioP1;P2;durP2;ratioP2
31537;SDS011;18147;51.952;6.146;2023-08-20T00:00:18;30.27;;;17.98;;
31537;SDS011;18147;51.952;6.146;2023-08-20T00:02:45;22.60;;;15.52;;
31537;SDS011;18147;51.952;6.146;2023-08-20T00:05:12;21.77;;;15.30;;
31537;SDS011;18147;51.952;6.146;2023-08-20T00:07:38;30.58;;;15.40;;
31537;SDS011;18147;51.952;6.146;2023-08-20T00:10:04;19.85;;;16.17;;
31537;SDS011;18147;51.952;6.146;2023-08-20T00:12:31;16.65;;;13.27;;
31537;SDS011;18147;51.952;6.146;2023-08-20T00:15:03;26.42;;;14.68;;
31537;SDS011;18147;51.952;6.146;2023-08-20T00:17:33;18.17;;;14.57;;
31537;SDS011;18147;51.952;6.146;2023-08-20T00:20:00;23.05;;;14.07;;
31537;SDS011;18147;51.952;6.146;2023-08-20T00:22:26;21.98;;;14.68;;
31537;SDS011;18147;51.952;6.146;2023-08-20T00:24:53;19.38;;;14.93;;
31537;SDS011;18147;51.952;6.146;2023-08-20T00:27:19;22.48;;;14.13;;
31537;SDS011;18147;51.952;6.146;2023-08-20T00:29:45;22.08;;;15.90;;
31537;SDS011;18147;51.952;6.146;2023-08-20T00:32:11;20.27;;;14.85;;
31537;SDS011;18147;51.952;6.146;2023-08-20T00:34:37;17.65;;;15.07;;
31537;SDS011;18147;51.952;6.146;2023-08-20T00:37:03;15.45;;;12.63;;
31537;SDS011;18147;51.952;6.146;2023-08-20T00:39:29;15.00;;;11.85;;
31537;SDS011;18147;51.952;6.146;2023-08-20T00:41:55;22.52;;;16.50;;
31537;SDS011;18147;51.952;6.146;2023-08-20T00:44:20;28.33;;;16.60;;
31537;SDS011;18147;51.952;6.146;2023-08-20T00:46:47;26.77;;;19.00;;
31537;SDS011;18147;51.952;6.146;2023-08-20T00:49:13;30.38;;;18.75;;
31537;SDS011;18147;51.952;6.146;2023-08-20T00:51:39;35.67;;;18.63;;
31537;SDS011;18147;51.952;6.146;2023-08-20T00:54:05;26.20;;;18.88;;
31537;SDS011;18147;51.952;6.146;2023-08-20T00:56:32;24.88;;;18.58;;
31537;SDS011;18147;51.952;6.146;2023-08-20T00:58:57;40.58;;;22.17;;
31537;SDS011;18147;51.952;6.146;2023-08-20T01:01:24;26.30;;;20.00;;
31537;SDS011;18147;51.952;6.146;2023-08-20T01:03:50;32.33;;;19.02;;
31537;SDS011;18147;51.952;6.146;2023-08-20T01:06:25;29.73;;;19.73;;
31537;SDS011;18147;51.952;6.146;2023-08-20T01:09:04;30.88;;;19.73;;
31537;SDS011;18147;51.952;6.146;2023-08-20T01:11:37;33.05;;;20.42;;
31537;SDS011;18147;51.952;6.146;2023-08-20T01:14:15;26.38;;;17.00;;
31537;SDS011;18147;51.952;6.146;2023-08-20T01:16:42;27.63;;;17.77;;
31537;SDS011;18147;51.952;6.146;2023-08-20T01:19:08;27.38;;;17.75;;
31537;SDS011;18147;51.952;6.146;2023-08-20T01:21:39;23.20;;;18.33;;
31537;SDS011;18147;51.952;6.146;2023-08-20T01:30:10;27.10;;;16.30;;
31537;SDS011;18147;51.952;6.146;2023-08-20T01:32:36;26.52;;;16.45;;
31537;SDS011;18147;51.952;6.146;2023-08-20T01:35:06;24.30;;;16.08;;
31537;SDS011;18147;51.952;6.146;2023-08-20T01:37:42;22.52;;;16.48;;
31537;SDS011;18147;51.952;6.146;2023-08-20T01:40:08;20.58;;;17.48;;
31537;SDS011;18147;51.952;6.146;2023-08-20T01:42:37;26.27;;;17.65;;
31537;SDS011;18147;51.952;6.146;2023-08-20T01:45:04;25.63;;;17.52;;
31537;SDS011;18147;51.952;6.146;2023-08-20T01:47:31;29.17;;;17.52;;
31537;SDS011;18147;51.952;6.146;2023-08-20T01:49:59;29.88;;;17.88;;
31537;SDS011;18147;51.952;6.146;2023-08-20T01:52:25;27.08;;;17.50;;
31537;SDS011;18147;51.952;6.146;2023-08-20T01:54:50;23.63;;;16.85;;
31537;SDS011;18147;51.952;6.146;2023-08-20T01:57:16;19.98;;;15.75;;
31537;SDS011;18147;51.952;6.146;2023-08-20T01:59:42;24.05;;;16.58;;
31537;SDS011;18147;51.952;6.146;2023-08-20T02:02:08;26.98;;;16.30;;
31537;SDS011;18147;51.952;6.146;2023-08-20T02:04:34;23.48;;;17.48;;
31537;SDS011;18147;51.952;6.146;2023-08-20T02:07:00;26.80;;;16.60;;
31537;SDS011;18147;51.952;6.146;2023-08-20T02:09:26;26.45;;;17.27;;
31537;SDS011;18147;51.952;6.146;2023-08-20T02:11:52;24.20;;;15.55;;
31537;SDS011;18147;51.952;6.146;2023-08-20T02:14:18;27.25;;;16.83;;
31537;SDS011;18147;51.952;6.146;2023-08-20T02:16:44;25.55;;;16.52;;
31537;SDS011;18147;51.952;6.146;2023-08-20T02:19:11;25.33;;;16.95;;
31537;SDS011;18147;51.952;6.146;2023-08-20T02:21:37;24.52;;;16.27;;
31537;SDS011;18147;51.952;6.146;2023-08-20T02:24:03;27.73;;;16.52;;
31537;SDS011;18147;51.952;6.146;2023-08-20T02:26:28;23.52;;;16.73;;
31537;SDS011;18147;51.952;6.146;2023-08-20T02:28:54;27.60;;;17.45;;
31537;SDS011;18147;51.952;6.146;2023-08-20T02:31:20;25.35;;;15.32;;
31537;SDS011;18147;51.952;6.146;2023-08-20T02:33:46;36.75;;;17.55;;
31537;SDS011;18147;51.952;6.146;2023-08-20T02:36:12;26.02;;;16.35;;
31537;SDS011;18147;51.952;6.146;2023-08-20T02:38:38;25.15;;;16.10;;
31537;SDS011;18147;51.952;6.146;2023-08-20T02:41:03;22.70;;;14.75;;
31537;SDS011;18147;51.952;6.146;2023-08-20T02:43:29;24.85;;;15.30;;
31537;SDS011;18147;51.952;6.146;2023-08-20T02:45:55;23.27;;;15.50;;
31537;SDS011;18147;51.952;6.146;2023-08-20T02:48:20;24.35;;;15.30;;
31537;SDS011;18147;51.952;6.146;2023-08-20T02:50:46;26.55;;;15.68;;
31537;SDS011;18147;51.952;6.146;2023-08-20T02:53:12;24.85;;;14.43;;
31537;SDS011;18147;51.952;6.146;2023-08-20T02:55:37;30.77;;;15.80;;
31537;SDS011;18147;51.952;6.146;2023-08-20T02:58:03;25.90;;;15.38;;
31537;SDS011;18147;51.952;6.146;2023-08-20T03:00:29;22.52;;;15.38;;
31537;SDS011;18147;51.952;6.146;2023-08-20T03:02:55;20.75;;;14.15;;
31537;SDS011;18147;51.952;6.146;2023-08-20T03:05:21;29.52;;;14.20;;
31537;SDS011;18147;51.952;6.146;2023-08-20T03:07:47;24.83;;;15.13;;
31537;SDS011;18147;51.952;6.146;2023-08-20T03:10:13;20.95;;;14.93;;
31537;SDS011;18147;51.952;6.146;2023-08-20T03:12:39;20.55;;;14.30;;
31537;SDS011;18147;51.952;6.146;2023-08-20T03:15:04;20.60;;;13.93;;
31537;SDS011;18147;51.952;6.146;2023-08-20T03:17:32;20.67;;;14.75;;
31537;SDS011;18147;51.952;6.146;2023-08-20T03:19:58;23.67;;;13.95;;
31537;SDS011;18147;51.952;6.146;2023-08-20T03:22:25;22.05;;;15.00;;
31537;SDS011;18147;51.952;6.146;2023-08-20T03:24:51;25.17;;;15.10;;
31537;SDS011;18147;51.952;6.146;2023-08-20T03:27:18;20.73;;;12.77;;
31537;SDS011;18147;51.952;6.146;2023-08-20T03:29:44;18.33;;;11.20;;
31537;SDS011;18147;51.952;6.146;2023-08-20T03:32:11;17.00;;;12.48;;
31537;SDS011;18147;51.952;6.146;2023-08-20T03:34:37;17.65;;;12.25;;
31537;SDS011;18147;51.952;6.146;2023-08-20T03:37:02;17.15;;;11.25;;
31537;SDS011;18147;51.952;6.146;2023-08-20T03:39:29;18.10;;;14.98;;
31537;SDS011;18147;51.952;6.146;2023-08-20T03:41:56;18.65;;;12.05;;
31537;SDS011;18147;51.952;6.146;2023-08-20T03:44:22;34.22;;;12.40;;
31537;SDS011;18147;51.952;6.146;2023-08-20T03:46:48;19.30;;;13.85;;
31537;SDS011;18147;51.952;6.146;2023-08-20T03:49:15;17.77;;;12.40;;
31537;SDS011;18147;51.952;6.146;2023-08-20T03:51:40;17.05;;;12.57;;
31537;SDS011;18147;51.952;6.146;2023-08-20T03:54:08;24.83;;;15.40;;
31537;SDS011;18147;51.952;6.146;2023-08-20T03:56:36;18.58;;;13.02;;
31537;SDS011;18147;51.952;6.146;2023-08-20T03:59:01;17.15;;;12.40;;
31537;SDS011;18147;51.952;6.146;2023-08-20T04:01:28;19.25;;;14.07;;
31537;SDS011;18147;51.952;6.146;2023-08-20T04:03:54;17.92;;;13.25;;
31537;SDS011;18147;51.952;6.146;2023-08-20T04:06:20;18.58;;;12.90;;
31537;SDS011;18147;51.952;6.146;2023-08-20T04:08:45;16.50;;;13.18;;
31537;SDS011;18147;51.952;6.146;2023-08-20T04:11:11;18.13;;;12.75;;
31537;SDS011;18147;51.952;6.146;2023-08-20T04:13:39;20.40;;;12.02;;
31537;SDS011;18147;51.952;6.146;2023-08-20T04:16:05;16.02;;;13.98;;
31537;SDS011;18147;51.952;6.146;2023-08-20T04:18:31;19.73;;;12.45;;
31537;SDS011;18147;51.952;6.146;2023-08-20T04:20:56;9.98;;;9.07;;
31537;SDS011;18147;51.952;6.146;2023-08-20T04:23:23;14.15;;;10.75;;
31537;SDS011;18147;51.952;6.146;2023-08-20T04:25:48;15.27;;;10.35;;
31537;SDS011;18147;51.952;6.146;2023-08-20T04:28:15;9.18;;;8.02;;
31537;SDS011;18147;51.952;6.146;2023-08-20T04:30:40;10.88;;;7.07;;
31537;SDS011;18147;51.952;6.146;2023-08-20T04:33:06;7.90;;;6.28;;
31537;SDS011;18147;51.952;6.146;2023-08-20T04:35:33;13.70;;;10.95;;
31537;SDS011;18147;51.952;6.146;2023-08-20T04:37:59;16.85;;;11.73;;
31537;SDS011;18147;51.952;6.146;2023-08-20T04:40:25;17.88;;;10.60;;
31537;SDS011;18147;51.952;6.146;2023-08-20T04:42:51;11.70;;;10.15;;
31537;SDS011;18147;51.952;6.146;2023-08-20T04:45:16;13.07;;;9.48;;
31537;SDS011;18147;51.952;6.146;2023-08-20T04:47:45;12.05;;;8.90;;
31537;SDS011;18147;51.952;6.146;2023-08-20T04:50:11;11.02;;;8.93;;
31537;SDS011;18147;51.952;6.146;2023-08-20T04:52:38;7.80;;;5.57;;
31537;SDS011;18147;51.952;6.146;2023-08-20T04:55:04;8.75;;;6.32;;
31537;SDS011;18147;51.952;6.146;2023-08-20T04:57:32;16.33;;;7.63;;
31537;SDS011;18147;51.952;6.146;2023-08-20T04:59:57;17.27;;;10.35;;
31537;SDS011;18147;51.952;6.146;2023-08-20T05:02:35;16.60;;;12.25;;
31537;SDS011;18147;51.952;6.146;2023-08-20T05:05:02;10.20;;;8.90;;
31537;SDS011;18147;51.952;6.146;2023-08-20T05:07:28;14.18;;;10.65;;
31537;SDS011;18147;51.952;6.146;2023-08-20T05:09:53;14.10;;;12.00;;
31537;SDS011;18147;51.952;6.146;2023-08-20T05:12:19;16.08;;;12.25;;
31537;SDS011;18147;51.952;6.146;2023-08-20T05:14:45;13.63;;;12.27;;
31537;SDS011;18147;51.952;6.146;2023-08-20T05:17:11;13.90;;;12.27;;
31537;SDS011;18147;51.952;6.146;2023-08-20T05:19:36;17.02;;;11.88;;
31537;SDS011;18147;51.952;6.146;2023-08-20T05:22:02;20.38;;;12.98;;
31537;SDS011;18147;51.952;6.146;2023-08-20T05:24:31;16.50;;;13.38;;
31537;SDS011;18147;51.952;6.146;2023-08-20T05:27:03;13.77;;;11.52;;
31537;SDS011;18147;51.952;6.146;2023-08-20T05:29:33;15.93;;;13.18;;
31537;SDS011;18147;51.952;6.146;2023-08-20T05:31:59;13.82;;;12.25;;
31537;SDS011;18147;51.952;6.146;2023-08-20T05:34:24;15.25;;;11.50;;
31537;SDS011;18147;51.952;6.146;2023-08-20T05:36:50;16.77;;;12.93;;
31537;SDS011;18147;51.952;6.146;2023-08-20T05:39:16;21.83;;;15.68;;
31537;SDS011;18147;51.952;6.146;2023-08-20T05:41:41;14.40;;;11.85;;
31537;SDS011;18147;51.952;6.146;2023-08-20T05:44:07;22.20;;;15.70;;
31537;SDS011;18147;51.952;6.146;2023-08-20T05:46:32;25.48;;;16.77;;
31537;SDS011;18147;51.952;6.146;2023-08-20T05:48:58;20.08;;;15.10;;
31537;SDS011;18147;51.952;6.146;2023-08-20T05:51:26;22.58;;;17.10;;
31537;SDS011;18147;51.952;6.146;2023-08-20T05:53:51;25.88;;;18.05;;
31537;SDS011;18147;51.952;6.146;2023-08-20T05:56:18;29.08;;;18.08;;
31537;SDS011;18147;51.952;6.146;2023-08-20T05:58:43;28.23;;;19.60;;
31537;SDS011;18147;51.952;6.146;2023-08-20T06:01:09;25.75;;;18.83;;
31537;SDS011;18147;51.952;6.146;2023-08-20T06:03:35;24.60;;;18.65;;
31537;SDS011;18147;51.952;6.146;2023-08-20T06:06:00;24.58;;;17.63;;
31537;SDS011;18147;51.952;6.146;2023-08-20T06:08:26;22.92;;;16.42;;
31537;SDS011;18147;51.952;6.146;2023-08-20T06:10:51;26.60;;;17.77;;
31537;SDS011;18147;51.952;6.146;2023-08-20T06:13:17;23.63;;;16.38;;
31537;SDS011;18147;51.952;6.146;2023-08-20T06:15:43;25.27;;;17.75;;
31537;SDS011;18147;51.952;6.146;2023-08-20T06:18:09;23.58;;;16.27;;
31537;SDS011;18147;51.952;6.146;2023-08-20T06:20:34;19.67;;;14.23;;
31537;SDS011;18147;51.952;6.146;2023-08-20T06:23:00;23.10;;;15.27;;
31537;SDS011;18147;51.952;6.146;2023-08-20T06:25:25;20.70;;;13.52;;
31537;SDS011;18147;51.952;6.146;2023-08-20T06:27:51;18.20;;;12.20;;
31537;SDS011;18147;51.952;6.146;2023-08-20T06:30:16;25.20;;;11.75;;
31537;SDS011;18147;51.952;6.146;2023-08-20T06:32:43;16.88;;;10.45;;
31537;SDS011;18147;51.952;6.146;2023-08-20T06:35:09;17.45;;;9.80;;
31537;SDS011;18147;51.952;6.146;2023-08-20T06:37:36;19.35;;;9.10;;
31537;SDS011;18147;51.952;6.146;2023-08-20T06:40:04;14.93;;;8.00;;
31537;SDS011;18147;51.952;6.146;2023-08-20T06:42:30;15.57;;;8.10;;
31537;SDS011;18147;51.952;6.146;2023-08-20T06:44:56;17.02;;;7.70;;
31537;SDS011;18147;51.952;6.146;2023-08-20T06:47:21;13.15;;;7.32;;
31537;SDS011;18147;51.952;6.146;2023-08-20T06:49:47;14.82;;;6.10;;
31537;SDS011;18147;51.952;6.146;2023-08-20T06:52:12;14.70;;;6.38;;
31537;SDS011;18147;51.952;6.146;2023-08-20T06:54:38;17.08;;;6.63;;
31537;SDS011;18147;51.952;6.146;2023-08-20T06:57:03;11.05;;;5.22;;
31537;SDS011;18147;51.952;6.146;2023-08-20T06:59:29;14.23;;;5.50;;
31537;SDS011;18147;51.952;6.146;2023-08-20T07:01:55;12.82;;;5.47;;
31537;SDS011;18147;51.952;6.146;2023-08-20T07:04:20;13.40;;;5.07;;
31537;SDS011;18147;51.952;6.146;2023-08-20T07:06:46;12.57;;;4.55;;
31537;SDS011;18147;51.952;6.146;2023-08-20T07:09:11;11.65;;;4.38;;
31537;SDS011;18147;51.952;6.146;2023-08-20T07:11:37;17.08;;;4.70;;
31537;SDS011;18147;51.952;6.146;2023-08-20T07:14:02;13.93;;;4.60;;
31537;SDS011;18147;51.952;6.146;2023-08-20T07:16:28;11.60;;;5.25;;
31537;SDS011;18147;51.952;6.146;2023-08-20T07:18:53;12.40;;;4.15;;
31537;SDS011;18147;51.952;6.146;2023-08-20T07:21:19;11.70;;;4.20;;
31537;SDS011;18147;51.952;6.146;2023-08-20T07:23:44;14.82;;;4.22;;
31537;SDS011;18147;51.952;6.146;2023-08-20T07:26:10;12.18;;;3.40;;
31537;SDS011;18147;51.952;6.146;2023-08-20T07:28:40;10.55;;;3.92;;
31537;SDS011;18147;51.952;6.146;2023-08-20T07:31:31;13.57;;;3.70;;
31537;SDS011;18147;51.952;6.146;2023-08-20T07:33:58;14.05;;;4.15;;
31537;SDS011;18147;51.952;6.146;2023-08-20T07:36:25;12.43;;;4.10;;
31537;SDS011;18147;51.952;6.146;2023-08-20T07:38:52;11.73;;;3.63;;
31537;SDS011;18147;51.952;6.146;2023-08-20T07:41:18;13.93;;;4.03;;
31537;SDS011;18147;51.952;6.146;2023-08-20T07:43:45;13.52;;;4.15;;
31537;SDS011;18147;51.952;6.146;2023-08-20T07:46:11;15.65;;;3.55;;
31537;SDS011;18147;51.952;6.146;2023-08-20T07:48:37;13.07;;;3.35;;
31537;SDS011;18147;51.952;6.146;2023-08-20T07:51:03;13.25;;;3.75;;
31537;SDS011;18147;51.952;6.146;2023-08-20T07:53:29;12.77;;;3.40;;
31537;SDS011;18147;51.952;6.146;2023-08-20T07:55:55;11.05;;;3.25;;
31537;SDS011;18147;51.952;6.146;2023-08-20T07:58:21;11.18;;;2.78;;
31537;SDS011;18147;51.952;6.146;2023-08-20T08:00:46;12.65;;;3.50;;
31537;SDS011;18147;51.952;6.146;2023-08-20T08:03:12;13.18;;;3.25;;
31537;SDS011;18147;51.952;6.146;2023-08-20T08:05:40;8.73;;;3.00;;
31537;SDS011;18147;51.952;6.146;2023-08-20T08:08:06;9.98;;;2.90;;
31537;SDS011;18147;51.952;6.146;2023-08-20T08:10:32;14.15;;;3.00;;
31537;SDS011;18147;51.952;6.146;2023-08-20T08:12:57;12.57;;;3.00;;
31537;SDS011;18147;51.952;6.146;2023-08-20T08:15:23;5.65;;;2.28;;
31537;SDS011;18147;51.952;6.146;2023-08-20T08:17:48;11.35;;;3.20;;
31537;SDS011;18147;51.952;6.146;2023-08-20T08:20:14;7.85;;;2.97;;
31537;SDS011;18147;51.952;6.146;2023-08-20T08:22:39;8.27;;;3.05;;
31537;SDS011;18147;51.952;6.146;2023-08-20T08:25:05;7.43;;;2.60;;
31537;SDS011;18147;51.952;6.146;2023-08-20T08:27:30;8.65;;;2.97;;
31537;SDS011;18147;51.952;6.146;2023-08-20T08:29:57;9.02;;;2.88;;
31537;SDS011;18147;51.952;6.146;2023-08-20T08:32:23;10.07;;;2.92;;
31537;SDS011;18147;51.952;6.146;2023-08-20T08:34:48;6.05;;;2.45;;
31537;SDS011;18147;51.952;6.146;2023-08-20T08:37:14;10.27;;;2.40;;
31537;SDS011;18147;51.952;6.146;2023-08-20T08:39:41;5.80;;;2.00;;
31537;SDS011;18147;51.952;6.146;2023-08-20T08:42:06;14.18;;;2.47;;
31537;SDS011;18147;51.952;6.146;2023-08-20T08:44:36;7.88;;;3.00;;
31537;SDS011;18147;51.952;6.146;2023-08-20T08:47:02;4.38;;;1.80;;
31537;SDS011;18147;51.952;6.146;2023-08-20T08:49:28;5.75;;;2.30;;
31537;SDS011;18147;51.952;6.146;2023-08-20T08:51:59;7.90;;;2.25;;
31537;SDS011;18147;51.952;6.146;2023-08-20T08:54:25;10.90;;;2.80;;
31537;SDS011;18147;51.952;6.146;2023-08-20T08:56:52;10.75;;;2.85;;
31537;SDS011;18147;51.952;6.146;2023-08-20T08:59:18;6.43;;;2.83;;
31537;SDS011;18147;51.952;6.146;2023-08-20T09:01:43;8.90;;;2.95;;
31537;SDS011;18147;51.952;6.146;2023-08-20T09:04:09;8.93;;;3.10;;
31537;SDS011;18147;51.952;6.146;2023-08-20T09:06:47;11.65;;;3.30;;
31537;SDS011;18147;51.952;6.146;2023-08-20T09:09:17;7.00;;;2.90;;
31537;SDS011;18147;51.952;6.146;2023-08-20T09:11:44;8.88;;;2.97;;
31537;SDS011;18147;51.952;6.146;2023-08-20T09:14:28;11.68;;;2.75;;
31537;SDS011;18147;51.952;6.146;2023-08-20T09:16:58;10.48;;;3.10;;
31537;SDS011;18147;51.952;6.146;2023-08-20T09:19:29;11.68;;;3.10;;
31537;SDS011;18147;51.952;6.146;2023-08-20T09:21:59;9.55;;;3.22;;
31537;SDS011;18147;51.952;6.146;2023-08-20T09:24:26;11.02;;;3.90;;
31537;SDS011;18147;51.952;6.146;2023-08-20T09:26:58;9.18;;;3.10;;
31537;SDS011;18147;51.952;6.146;2023-08-20T09:29:26;11.10;;;3.33;;
31537;SDS011;18147;51.952;6.146;2023-08-20T09:31:51;9.75;;;3.53;;
31537;SDS011;18147;51.952;6.146;2023-08-20T09:34:25;10.00;;;3.47;;
31537;SDS011;18147;51.952;6.146;2023-08-20T09:36:51;10.23;;;3.22;;
31537;SDS011;18147;51.952;6.146;2023-08-20T09:39:17;10.43;;;3.00;;
31537;SDS011;18147;51.952;6.146;2023-08-20T09:41:42;8.43;;;3.20;;
31537;SDS011;18147;51.952;6.146;2023-08-20T09:44:12;11.45;;;3.30;;
31537;SDS011;18147;51.952;6.146;2023-08-20T09:46:40;12.18;;;2.85;;
31537;SDS011;18147;51.952;6.146;2023-08-20T09:49:08;7.07;;;2.97;;
31537;SDS011;18147;51.952;6.146;2023-08-20T09:51:37;7.82;;;2.75;;
31537;SDS011;18147;51.952;6.146;2023-08-20T09:54:14;9.18;;;2.40;;
31537;SDS011;18147;51.952;6.146;2023-08-20T09:56:53;8.45;;;2.72;;
31537;SDS011;18147;51.952;6.146;2023-08-20T09:59:23;7.20;;;2.50;;
31537;SDS011;18147;51.952;6.146;2023-08-20T10:01:49;5.53;;;2.25;;
31537;SDS011;18147;51.952;6.146;2023-08-20T10:04:16;11.40;;;2.83;;
31537;SDS011;18147;51.952;6.146;2023-08-20T10:06:43;7.53;;;2.45;;
31537;SDS011;18147;51.952;6.146;2023-08-20T10:09:09;5.05;;;1.95;;
31537;SDS011;18147;51.952;6.146;2023-08-20T10:11:34;5.72;;;1.80;;
31537;SDS011;18147;51.952;6.146;2023-08-20T10:14:02;4.45;;;2.08;;
31537;SDS011;18147;51.952;6.146;2023-08-20T10:16:28;5.28;;;1.55;;
31537;SDS011;18147;51.952;6.146;2023-08-20T10:18:53;5.38;;;1.70;;
31537;SDS011;18147;51.952;6.146;2023-08-20T10:21:24;4.18;;;1.73;;
31537;SDS011;18147;51.952;6.146;2023-08-20T10:23:50;5.07;;;1.73;;
31537;SDS011;18147;51.952;6.146;2023-08-20T10:26:15;4.60;;;1.67;;
31537;SDS011;18147;51.952;6.146;2023-08-20T10:28:42;4.90;;;1.92;;
31537;SDS011;18147;51.952;6.146;2023-08-20T10:31:08;7.60;;;1.33;;
31537;SDS011;18147;51.952;6.146;2023-08-20T10:33:37;1.77;;;0.95;;
31537;SDS011;18147;51.952;6.146;2023-08-20T10:36:08;3.88;;;1.42;;
31537;SDS011;18147;51.952;6.146;2023-08-20T10:38:47;3.83;;;1.10;;
31537;SDS011;18147;51.952;6.146;2023-08-20T10:41:15;2.95;;;1.05;;
31537;SDS011;18147;51.952;6.146;2023-08-20T10:43:48;2.25;;;1.00;;
31537;SDS011;18147;51.952;6.146;2023-08-20T10:48:51;3.33;;;1.02;;
31537;SDS011;18147;51.952;6.146;2023-08-20T10:51:28;2.53;;;1.08;;
31537;SDS011;18147;51.952;6.146;2023-08-20T10:54:14;2.30;;;0.90;;
31537;SDS011;18147;51.952;6.146;2023-08-20T10:59:09;2.80;;;1.23;;
31537;SDS011;18147;51.952;6.146;2023-08-20T11:01:38;6.90;;;1.60;;
31537;SDS011;18147;51.952;6.146;2023-08-20T11:04:04;4.32;;;1.00;;
31537;SDS011;18147;51.952;6.146;2023-08-20T11:06:32;1.65;;;1.00;;
31537;SDS011;18147;51.952;6.146;2023-08-20T11:08:58;3.00;;;1.00;;
31537;SDS011;18147;51.952;6.146;2023-08-20T11:11:24;4.55;;;1.23;;
31537;SDS011;18147;51.952;6.146;2023-08-20T11:13:50;3.65;;;1.20;;
31537;SDS011;18147;51.952;6.146;2023-08-20T11:16:16;4.75;;;1.02;;
31537;SDS011;18147;51.952;6.146;2023-08-20T11:18:42;3.92;;;1.13;;
31537;SDS011;18147;51.952;6.146;2023-08-20T11:21:08;2.53;;;1.10;;
31537;SDS011;18147;51.952;6.146;2023-08-20T11:23:34;3.55;;;0.88;;
31537;SDS011;18147;51.952;6.146;2023-08-20T11:26:00;3.20;;;1.20;;
31537;SDS011;18147;51.952;6.146;2023-08-20T11:28:27;2.58;;;1.13;;
31537;SDS011;18147;51.952;6.146;2023-08-20T11:30:53;6.28;;;1.52;;
31537;SDS011;18147;51.952;6.146;2023-08-20T11:33:21;4.80;;;1.20;;
31537;SDS011;18147;51.952;6.146;2023-08-20T11:35:47;7.47;;;1.70;;
31537;SDS011;18147;51.952;6.146;2023-08-20T11:38:13;4.85;;;1.42;;
31537;SDS011;18147;51.952;6.146;2023-08-20T11:40:39;3.15;;;1.13;;
31537;SDS011;18147;51.952;6.146;2023-08-20T11:43:04;4.03;;;1.25;;
31537;SDS011;18147;51.952;6.146;2023-08-20T11:45:30;4.20;;;1.10;;
31537;SDS011;18147;51.952;6.146;2023-08-20T11:47:57;4.65;;;1.35;;
31537;SDS011;18147;51.952;6.146;2023-08-20T11:50:23;5.25;;;1.35;;
31537;SDS011;18147;51.952;6.146;2023-08-20T11:52:48;3.88;;;1.20;;
31537;SDS011;18147;51.952;6.146;2023-08-20T11:55:14;5.32;;;1.48;;
31537;SDS011;18147;51.952;6.146;2023-08-20T11:57:49;4.07;;;1.30;;
31537;SDS011;18147;51.952;6.146;2023-08-20T12:00:23;4.50;;;1.75;;
31537;SDS011;18147;51.952;6.146;2023-08-20T12:02:55;6.03;;;1.38;;
31537;SDS011;18147;51.952;6.146;2023-08-20T12:05:28;3.35;;;1.77;;
31537;SDS011;18147;51.952;6.146;2023-08-20T12:07:58;3.65;;;1.30;;
31537;SDS011;18147;51.952;6.146;2023-08-20T12:12:54;2.55;;;1.30;;
31537;SDS011;18147;51.952;6.146;2023-08-20T12:15:20;6.53;;;1.30;;
31537;SDS011;18147;51.952;6.146;2023-08-20T12:18:04;4.93;;;1.30;;
31537;SDS011;18147;51.952;6.146;2023-08-20T12:20:34;4.53;;;1.60;;
31537;SDS011;18147;51.952;6.146;2023-08-20T12:23:02;6.50;;;1.27;;
31537;SDS011;18147;51.952;6.146;2023-08-20T12:25:30;6.13;;;1.70;;
31537;SDS011;18147;51.952;6.146;2023-08-20T12:27:57;5.15;;;1.52;;
31537;SDS011;18147;51.952;6.146;2023-08-20T12:30:23;3.97;;;1.45;;
31537;SDS011;18147;51.952;6.146;2023-08-20T12:32:48;4.45;;;1.40;;
31537;SDS011;18147;51.952;6.146;2023-08-20T12:35:14;4.82;;;1.20;;
31537;SDS011;18147;51.952;6.146;2023-08-20T12:37:39;7.03;;;1.35;;
31537;SDS011;18147;51.952;6.146;2023-08-20T12:40:05;6.60;;;1.55;;
31537;SDS011;18147;51.952;6.146;2023-08-20T12:42:36;7.53;;;1.60;;
31537;SDS011;18147;51.952;6.146;2023-08-20T12:45:03;3.42;;;1.27;;
31537;SDS011;18147;51.952;6.146;2023-08-20T12:47:30;4.65;;;1.30;;
31537;SDS011;18147;51.952;6.146;2023-08-20T12:49:55;3.78;;;1.38;;
31537;SDS011;18147;51.952;6.146;2023-08-20T12:52:21;5.35;;;1.20;;
31537;SDS011;18147;51.952;6.146;2023-08-20T12:54:46;4.45;;;1.17;;
31537;SDS011;18147;51.952;6.146;2023-08-20T12:57:12;4.50;;;1.40;;
31537;SDS011;18147;51.952;6.146;2023-08-20T12:59:37;4.95;;;1.40;;
31537;SDS011;18147;51.952;6.146;2023-08-20T13:02:03;6.55;;;1.55;;
31537;SDS011;18147;51.952;6.146;2023-08-20T13:04:28;4.50;;;1.50;;
31537;SDS011;18147;51.952;6.146;2023-08-20T13:06:54;3.38;;;1.40;;
31537;SDS011;18147;51.952;6.146;2023-08-20T13:09:20;7.47;;;1.52;;
31537;SDS011;18147;51.952;6.146;2023-08-20T13:11:45;4.38;;;1.42;;
31537;SDS011;18147;51.952;6.146;2023-08-20T13:14:12;5.30;;;1.38;;
31537;SDS011;18147;51.952;6.146;2023-08-20T13:16:38;4.40;;;1.30;;
31537;SDS011;18147;51.952;6.146;2023-08-20T13:19:04;5.65;;;1.67;;
31537;SDS011;18147;51.952;6.146;2023-08-20T13:21:30;5.47;;;1.23;;
31537;SDS011;18147;51.952;6.146;2023-08-20T13:23:56;3.95;;;1.20;;
31537;SDS011;18147;51.952;6.146;2023-08-20T13:26:21;5.47;;;1.20;;
31537;SDS011;18147;51.952;6.146;2023-08-20T13:28:47;3.90;;;1.40;;
31537;SDS011;18147;51.952;6.146;2023-08-20T13:31:13;5.00;;;1.45;;
31537;SDS011;18147;51.952;6.146;2023-08-20T13:33:39;3.95;;;1.40;;
31537;SDS011;18147;51.952;6.146;2023-08-20T13:36:05;7.57;;;1.50;;
31537;SDS011;18147;51.952;6.146;2023-08-20T13:38:32;4.00;;;1.38;;
31537;SDS011;18147;51.952;6.146;2023-08-20T13:40:58;4.55;;;1.70;;
31537;SDS011;18147;51.952;6.146;2023-08-20T13:43:23;4.88;;;1.23;;
31537;SDS011;18147;51.952;6.146;2023-08-20T13:45:49;6.50;;;1.45;;
31537;SDS011;18147;51.952;6.146;2023-08-20T13:48:15;5.68;;;1.90;;
31537;SDS011;18147;51.952;6.146;2023-08-20T13:50:40;6.38;;;1.60;;
31537;SDS011;18147;51.952;6.146;2023-08-20T13:53:06;5.45;;;1.45;;
31537;SDS011;18147;51.952;6.146;2023-08-20T13:55:31;6.22;;;1.73;;
31537;SDS011;18147;51.952;6.146;2023-08-20T13:57:57;6.88;;;1.50;;
31537;SDS011;18147;51.952;6.146;2023-08-20T14:00:22;5.88;;;1.63;;
31537;SDS011;18147;51.952;6.146;2023-08-20T14:02:48;6.13;;;1.52;;
31537;SDS011;18147;51.952;6.146;2023-08-20T14:05:14;4.47;;;1.65;;
31537;SDS011;18147;51.952;6.146;2023-08-20T14:07:39;5.43;;;1.55;;
31537;SDS011;18147;51.952;6.146;2023-08-20T14:10:07;3.25;;;1.52;;
31537;SDS011;18147;51.952;6.146;2023-08-20T14:12:33;7.43;;;2.63;;
31537;SDS011;18147;51.952;6.146;2023-08-20T14:14:59;12.32;;;1.90;;
31537;SDS011;18147;51.952;6.146;2023-08-20T14:17:25;6.78;;;1.80;;
31537;SDS011;18147;51.952;6.146;2023-08-20T14:19:50;5.20;;;1.45;;
31537;SDS011;18147;51.952;6.146;2023-08-20T14:22:16;5.20;;;1.38;;
31537;SDS011;18147;51.952;6.146;2023-08-20T14:24:43;4.82;;;1.40;;
31537;SDS011;18147;51.952;6.146;2023-08-20T14:27:08;3.47;;;1.58;;
31537;SDS011;18147;51.952;6.146;2023-08-20T14:29:35;4.97;;;1.70;;
31537;SDS011;18147;51.952;6.146;2023-08-20T14:32:00;6.00;;;1.80;;
31537;SDS011;18147;51.952;6.146;2023-08-20T14:34:26;5.63;;;1.25;;
31537;SDS011;18147;51.952;6.146;2023-08-20T14:36:51;6.13;;;1.27;;
31537;SDS011;18147;51.952;6.146;2023-08-20T14:39:17;3.90;;;1.60;;
31537;SDS011;18147;51.952;6.146;2023-08-20T14:41:42;5.45;;;1.88;;
31537;SDS011;18147;51.952;6.146;2023-08-20T14:44:08;6.45;;;1.40;;